createdAt,value
2022-12-23T00:09:55.635Z,6.2
2022-12-23T00:20:03.841Z,6.45
2022-12-23T00:30:13.167Z,6.01
2022-12-23T00:40:21.161Z,6.85
2022-12-23T00:50:29.269Z,7.52
2022-12-23T01:00:37.230Z,6.46
2022-12-23T01:10:45.435Z,3.72
2022-12-23T01:20:53.640Z,3.53
2022-12-23T01:31:01.789Z,4.24
2022-12-23T01:41:11.421Z,3.93
2022-12-23T01:51:20.734Z,4.01
2022-12-23T02:01:28.916Z,4.03
2022-12-23T02:11:36.915Z,3.66
2022-12-23T02:21:44.983Z,3.79
2022-12-23T02:31:53.078Z,4.14
2022-12-23T02:42:01.204Z,4.4
2022-12-23T02:52:09.196Z,4.3
2022-12-23T03:02:17.429Z,4.61
2022-12-23T03:12:25.557Z,4.24
2022-12-23T03:22:33.517Z,5.37
2022-12-23T03:32:41.609Z,4.79
2022-12-23T03:42:49.818Z,3.67
2022-12-23T03:52:57.976Z,3.58
2022-12-23T04:03:07.287Z,3.65
2022-12-23T04:13:15.343Z,3.9
2022-12-23T04:23:23.556Z,4.28
2022-12-23T04:33:31.862Z,4.38
2022-12-23T04:43:39.882Z,4.53
2022-12-23T04:53:47.993Z,5.02
2022-12-23T05:03:56.142Z,4.9
2022-12-23T05:14:04.241Z,4.93
2022-12-23T05:24:12.711Z,4.19
2022-12-23T05:34:20.977Z,4.31
2022-12-23T05:44:29.133Z,4.62
2022-12-23T05:54:37.161Z,4.67
2022-12-23T06:04:45.271Z,4.44
2022-12-23T06:14:53.270Z,4.74
2022-12-23T06:25:01.400Z,4.9
2022-12-23T06:35:09.557Z,5.03
2022-12-23T06:45:17.667Z,4.9
2022-12-23T06:55:25.712Z,5.39
2022-12-23T07:05:36.648Z,5.48
2022-12-23T07:15:41.263Z,5.82
2022-12-23T07:25:49.369Z,6.39
2022-12-23T07:35:58.914Z,6.48
2022-12-23T07:46:06.060Z,7.51
2022-12-23T07:56:16.822Z,6.97
2022-12-23T08:06:15.838Z,6.93
2022-12-23T08:16:24.069Z,5.69
2022-12-23T08:26:33.509Z,6.85
2022-12-23T08:36:41.778Z,7.96
2022-12-23T08:46:49.979Z,9.69
2022-12-23T08:57:01.161Z,5.71
2022-12-23T09:07:01.400Z,5.37
2022-12-23T09:17:00.817Z,5.17
2022-12-23T09:27:09.122Z,2.61
2022-12-23T09:37:21.588Z,3.18
2022-12-23T09:47:19.762Z,2.67
2022-12-23T09:57:28.421Z,3.76
2022-12-23T10:07:42.861Z,3.97
2022-12-23T10:17:58.132Z,2.04
2022-12-23T10:27:50.110Z,1.75
2022-12-23T10:37:48.070Z,1.86
2022-12-23T10:47:59.916Z,1.94
2022-12-23T10:57:59.230Z,1.77
2022-12-23T11:08:07.391Z,2.01
2022-12-23T11:18:20.632Z,2.04
2022-12-23T11:28:21.211Z,2.12
2022-12-23T11:38:22.435Z,1.43
2022-12-23T11:48:24.772Z,1.14
2022-12-23T11:58:23.080Z,1.11
2022-12-23T12:08:33.921Z,1.66
2022-12-23T12:18:33.621Z,1.24
2022-12-23T12:28:49.603Z,1.43
2022-12-23T12:38:47.722Z,1.47
2022-12-23T12:48:55.516Z,1.62
2022-12-23T12:59:14.711Z,1.53
2022-12-23T13:09:19.181Z,2.8
2022-12-23T13:19:17.896Z,1.67
2022-12-23T13:29:28.277Z,1.42
2022-12-23T13:39:28.801Z,1.61
2022-12-23T13:49:28.224Z,2.77
2022-12-23T13:59:36.247Z,1.97
2022-12-23T14:09:44.267Z,2.52
2022-12-23T14:19:52.151Z,2.54
2022-12-23T14:30:05.079Z,4.27
2022-12-23T14:40:06.934Z,2.58
2022-12-23T14:50:15.001Z,2.11
2022-12-23T15:00:22.870Z,1.62
2022-12-23T15:10:30.727Z,1.37
2022-12-23T15:20:38.635Z,1.68
2022-12-23T15:30:46.872Z,1.49
2022-12-23T15:40:55.053Z,1.48
2022-12-23T15:51:02.979Z,1.11
2022-12-23T16:01:10.966Z,1.44
2022-12-23T16:11:19.227Z,1.16
2022-12-23T16:21:27.223Z,1.13
2022-12-23T16:31:35.322Z,1.19
2022-12-23T16:41:43.309Z,1.05
2022-12-23T16:51:50.991Z,1.04
2022-12-23T17:02:03.317Z,1.37
2022-12-23T17:12:05.990Z,1.53
2022-12-23T17:22:15.525Z,1.18
2022-12-23T17:32:24.225Z,1.54
2022-12-23T17:42:31.320Z,1.33
2022-12-23T17:52:39.351Z,1.56
2022-12-23T18:02:47.620Z,1.65
2022-12-23T18:12:56.561Z,2.51
2022-12-23T18:23:07.061Z,2.42
2022-12-23T18:33:05.063Z,2.39
2022-12-23T18:43:13.420Z,3.03
2022-12-23T18:53:24.136Z,2.71
2022-12-23T19:03:28.613Z,1.97
2022-12-23T19:13:38.118Z,3.26
2022-12-23T19:23:46.462Z,2.4
2022-12-23T19:33:56.754Z,2.92
2022-12-23T19:43:57.166Z,2.76
2022-12-23T19:53:58.453Z,2.77
2022-12-23T20:03:59.177Z,2.93
2022-12-23T20:14:07.863Z,3.03
2022-12-23T20:24:35.917Z,2.99
2022-12-23T20:34:33.260Z,2.44
2022-12-23T20:44:39.506Z,3.09
2022-12-23T20:54:36.844Z,3.24
2022-12-23T21:04:45.469Z,1.59
2022-12-23T21:14:55.889Z,2.89
2022-12-23T21:25:02.665Z,1.96
2022-12-23T21:35:08.001Z,3.27
2022-12-23T21:45:14.569Z,2.41
2022-12-23T21:55:16.774Z,1.65
2022-12-23T22:05:18.152Z,2.09
2022-12-23T22:15:20.349Z,1.5
2022-12-23T22:25:21.502Z,1.3
2022-12-23T22:35:19.512Z,1.75
2022-12-23T22:45:27.599Z,1.21
2022-12-23T22:55:35.779Z,0.91
2022-12-23T23:05:44.014Z,1.06
2022-12-23T23:15:52.199Z,1.22
2022-12-23T23:26:00.390Z,1.05
2022-12-23T23:36:08.719Z,1.05
2022-12-23T23:46:18.240Z,1.09
2022-12-23T23:56:25.947Z,0.93
